Time;durP1;ratioP1;P1;durP2;ratioP2;P2;SDS_P1;SDS_P2;PMS_P1;PMS_P2;Temp;Humidity;BMP_temperature;BMP_pressure;BME280_temperature;BME280_humidity;BME280_pressure;Samples;Min_cycle;Max_cycle;Signal;HPM_P1;HPM_P2
2023/07/17 07:01:40;;;;;;;3.35;1.45;;;21.20;99.90;21.60;101662.00;;;;6277839;22;1434939;-63
2023/07/17 07:04:10;;;;;;;1.38;1.27;;;21.10;99.90;21.90;101645.00;;;;6340900;22;20146;-63
2023/07/17 07:06:35;;;;;;;4.82;1.90;;;20.60;99.90;20.80;101629.00;;;;6339360;22;20571;-62
2023/07/17 07:09:04;;;;;;;0.52;0.52;;;19.70;99.90;21.00;101624.00;;;;6339530;22;20147;-63
2023/07/17 07:11:32;;;;;;;0.43;0.43;;;19.80;99.90;24.30;101640.00;;;;6340831;22;20214;-64
2023/07/17 07:14:01;;;;;;;1.88;1.77;;;21.00;99.90;24.60;101682.00;;;;6340826;22;20144;-64
2023/07/17 07:16:27;;;;;;;1.38;0.95;;;22.00;99.90;22.30;101660.00;;;;6338461;22;20599;-63
2023/07/17 07:18:56;;;;;;;0.45;0.45;;;21.20;99.90;21.90;101646.00;;;;6339255;22;20468;-63
2023/07/17 07:21:21;;;;;;;0.52;0.52;;;20.60;99.90;21.80;101649.00;;;;6337083;22;20166;-63
2023/07/17 07:23:53;;;;;;;4.97;1.77;;;20.30;99.90;23.50;101679.00;;;;6339185;22;20159;-63
2023/07/17 07:26:19;;;;;;;0.57;0.40;;;21.40;99.90;22.00;101660.00;;;;6312794;22;20155;-63
2023/07/17 07:28:45;;;;;;;4.15;1.98;;;20.60;99.90;21.00;101672.00;;;;6312687;22;20151;-63
2023/07/17 07:31:11;;;;;;;2.83;1.27;;;20.60;99.90;22.50;101671.00;;;;6340679;22;20195;-63
2023/07/17 07:33:42;;;;;;;1.20;0.90;;;20.50;99.90;23.50;101673.00;;;;6339701;22;20611;-64
2023/07/17 07:36:08;;;;;;;0.98;0.98;;;21.00;99.90;22.80;101710.00;;;;6339916;22;20147;-63
2023/07/17 07:38:48;;;;;;;0.40;0.40;;;21.30;99.90;23.50;101700.00;;;;6340614;22;20166;-63
2023/07/17 07:41:40;;;;;;;1.55;1.08;;;21.40;99.90;21.70;101709.00;;;;6340245;22;20595;-63
2023/07/17 07:48:45;;;;;;;0.65;0.65;;;21.20;99.90;27.60;101684.00;;;;6338714;22;20180;-63
2023/07/17 07:51:10;;;;;;;0.45;0.45;;;23.20;99.90;24.80;101767.00;;;;6340318;22;20179;-63
2023/07/17 07:53:36;;;;;;;2.00;1.20;;;22.90;99.90;25.40;101765.00;;;;6340126;22;20160;-63
2023/07/17 07:56:02;;;;;;;1.58;1.48;;;23.30;99.90;23.00;101768.00;;;;6339902;22;20143;-63
2023/07/17 07:58:50;;;;;;;0.63;0.63;;;21.50;99.90;24.80;101760.00;;;;6340226;22;20181;-63
2023/07/17 08:01:21;;;;;;;0.30;0.30;;;22.20;99.90;23.40;101772.00;;;;6311450;22;20506;-65
2023/07/17 08:03:50;;;;;;;5.20;1.85;;;21.80;99.90;24.10;101735.00;;;;6338369;22;20159;-64
2023/07/17 08:06:21;;;;;;;0.57;0.57;;;21.80;99.90;24.90;101734.00;;;;6339807;22;20478;-64
2023/07/17 08:08:53;;;;;;;1.80;0.95;;;22.10;99.90;23.90;101790.00;;;;6340255;22;20151;-64
2023/07/17 08:11:24;;;;;;;0.65;0.50;;;22.30;99.90;23.00;101793.00;;;;6340232;22;20140;-64
2023/07/17 08:13:53;;;;;;;2.10;1.08;;;21.40;99.90;23.10;101749.00;;;;6338917;22;20174;-64
2023/07/17 08:16:21;;;;;;;0.40;0.40;;;21.20;99.90;23.30;101774.00;;;;6340144;22;20148;-63
2023/07/17 08:18:55;;;;;;;3.03;1.83;;;21.10;99.90;23.30;101757.00;;;;6339858;22;20222;-63
2023/07/17 08:21:21;;;;;;;6.03;1.48;;;21.20;99.90;22.70;101768.00;;;;6339949;22;20140;-63
2023/07/17 08:24:17;;;;;;;5.60;2.72;;;20.90;99.90;23.20;101778.00;;;;6337165;22;20147;-63
2023/07/17 08:27:07;;;;;;;5.47;2.53;;;21.40;99.90;22.90;101743.00;;;;6338256;22;20148;-63
2023/07/17 08:29:33;;;;;;;1.00;1.00;;;21.00;99.90;21.70;101753.00;;;;6339156;22;20158;-63
2023/07/17 08:32:02;;;;;;;2.80;1.63;;;20.50;99.90;22.30;101740.00;;;;6338599;22;20167;-64
2023/07/17 08:34:30;;;;;;;2.53;1.45;;;20.40;99.90;22.90;101752.00;;;;6337656;22;20474;-63
2023/07/17 08:37:08;;;;;;;2.10;1.92;;;21.00;99.90;23.30;101744.00;;;;6339175;22;20257;-63
2023/07/17 08:39:59;;;;;;;1.50;1.25;;;21.30;99.90;22.60;101767.00;;;;6312450;22;20179;-65
2023/07/17 08:42:45;;;;;;;2.67;1.20;;;20.90;99.90;21.80;101764.00;;;;6337343;22;20163;-64
2023/07/17 08:45:33;;;;;;;1.77;0.55;;;20.40;99.90;22.20;101744.00;;;;6312149;22;20159;-67
2023/07/17 08:48:35;;;;;;;0.30;0.30;;;20.30;99.90;24.60;101752.00;;;;6338040;22;20156;-65
2023/07/17 08:51:28;;;;;;;0.93;0.93;;;21.20;99.90;24.90;101760.00;;;;6338439;22;20163;-66
2023/07/17 08:54:06;;;;;;;0.20;0.20;;;22.00;99.90;27.00;101743.00;;;;6336896;22;20210;-67
2023/07/17 08:56:32;;;;;;;9.32;2.47;;;23.70;99.90;25.70;101784.00;;;;6338159;22;20227;-64
2023/07/17 08:58:59;;;;;;;2.65;1.17;;;23.90;99.90;24.00;101806.00;;;;6337126;22;20135;-65
2023/07/17 09:01:27;;;;;;;3.38;2.88;;;22.70;99.90;22.20;101809.00;;;;6337252;22;20191;-64
2023/07/17 09:03:56;;;;;;;1.00;1.00;;;21.40;99.90;24.30;101761.00;;;;6338390;22;20652;-63
2023/07/17 09:06:34;;;;;;;0.32;0.32;;;21.40;99.90;24.30;101802.00;;;;6338420;22;20156;-64
2023/07/17 09:09:00;;;;;;;0.30;0.30;;;22.20;99.90;26.30;101784.00;;;;6338126;22;20175;-64
2023/07/17 09:11:26;;;;;;;0.10;0.10;;;22.80;99.90;27.30;101776.00;;;;6339535;22;20143;-64
2023/07/17 09:13:53;;;;;;;2.60;1.88;;;24.00;99.90;24.50;101806.00;;;;6339482;22;20168;-64
2023/07/17 09:16:38;;;;;;;0.30;0.30;;;23.00;99.90;24.60;101794.00;;;;6339244;22;20215;-64
2023/07/17 09:19:04;;;;;;;0.13;0.13;;;22.10;99.90;26.70;101787.00;;;;6335659;22;20479;-64
2023/07/17 09:21:35;;;;;;;1.23;1.13;;;23.60;99.90;26.00;101801.00;;;;6338965;22;20143;-63
2023/07/17 09:24:00;;;;;;;3.90;0.93;;;23.60;99.90;25.20;101805.00;;;;6339056;22;20542;-63
2023/07/17 09:26:28;;;;;;;1.05;1.05;;;23.30;99.90;26.00;101785.00;;;;6338918;22;20146;-63
2023/07/17 09:28:58;;;;;;;0.20;0.20;;;23.50;99.90;27.30;101777.00;;;;6339187;22;20156;-64
2023/07/17 09:31:31;;;;;;;0.47;0.47;;;24.40;99.90;26.70;101772.00;;;;6339687;22;20151;-63
2023/07/17 09:34:04;;;;;;;0.20;0.20;;;24.40;99.90;27.60;101757.00;;;;6339063;22;20151;-63
2023/07/17 09:36:30;;;;;;;0.30;0.30;;;24.80;99.90;24.30;101808.00;;;;6339401;22;20168;-63
2023/07/17 09:38:58;;;;;;;0.30;0.30;;;23.00;99.90;26.70;101758.00;;;;6337345;22;20154;-63
2023/07/17 09:41:26;;;;;;;0.30;0.30;;;23.80;99.90;26.00;101787.00;;;;6338955;22;20600;-63
2023/07/17 09:43:58;;;;;;;0.28;0.28;;;23.90;99.90;25.90;101790.00;;;;6339329;22;20223;-63
2023/07/17 09:46:27;;;;;;;2.03;1.63;;;23.70;99.90;25.10;101807.00;;;;6339355;22;20152;-63
2023/07/17 09:48:54;;;;;;;2.72;1.75;;;23.50;99.90;23.80;101840.00;;;;6338800;22;20152;-63
2023/07/17 09:51:22;;;;;;;2.28;1.77;;;22.30;99.90;24.30;101824.00;;;;6311831;22;20158;-63
2023/07/17 09:53:48;;;;;;;1.65;1.02;;;22.00;99.90;24.40;101825.00;;;;6339394;22;20167;-63
2023/07/17 09:56:17;;;;;;;1.60;1.25;;;22.00;99.90;24.00;101826.00;;;;6337493;22;20192;-63
2023/07/17 09:58:47;;;;;;;1.48;0.77;;;21.80;99.90;24.60;101843.00;;;;6337533;22;20226;-63
2023/07/17 10:01:23;;;;;;;1.23;1.08;;;22.10;99.90;24.50;101835.00;;;;6337750;22;20250;-63
2023/07/17 10:03:50;;;;;;;0.10;0.10;;;22.10;99.90;23.90;101841.00;;;;6311404;22;20583;-63
2023/07/17 10:06:19;;;;;;;1.42;1.33;;;21.90;99.90;26.40;101816.00;;;;6337846;22;20158;-64
2023/07/17 10:08:51;;;;;;;0.10;0.10;;;23.40;99.90;24.30;101845.00;;;;6337742;22;20198;-63
2023/07/17 10:11:18;;;;;;;0.60;0.47;;;22.60;99.90;24.30;101819.00;;;;6337269;22;20168;-63
2023/07/17 10:13:46;;;;;;;0.68;0.68;;;22.20;99.90;26.20;101823.00;;;;6338882;22;20214;-63
2023/07/17 10:16:18;;;;;;;3.00;1.75;;;23.00;99.90;25.30;101830.00;;;;6338839;22;20144;-64
2023/07/17 10:18:54;;;;;;;2.10;1.05;;;23.20;99.90;26.20;101818.00;;;;6338671;22;20139;-63
2023/07/17 10:33:36;;;;;;;0.40;0.40;;;21.50;99.90;24.40;101822.00;;;;5070523;28;21016;-64
2023/07/17 10:36:43;;;;;;;0.57;0.57;;;21.70;99.90;24.70;101819.00;;;;5049816;28;20208;-64
2023/07/17 10:39:25;;;;;;;0.32;0.32;;;21.80;99.90;25.80;101800.00;;;;5035794;28;20185;-64
2023/07/17 10:41:51;;;;;;;3.60;1.05;;;22.70;99.90;26.50;101771.00;;;;5045558;28;20556;-62
2023/07/17 10:44:22;;;;;;;1.63;0.57;;;23.50;99.90;24.90;101825.00;;;;5050464;28;20761;-62
2023/07/17 10:46:48;;;;;;;1.13;1.13;;;22.90;99.90;28.00;101787.00;;;;5050476;28;20182;-63
2023/07/17 10:49:17;;;;;;;0.60;0.50;;;24.20;99.90;27.70;101780.00;;;;5049781;28;20189;-63
2023/07/17 10:52:11;;;;;;;1.38;0.50;;;25.20;99.90;26.90;101790.00;;;;5049020;28;20608;-63
2023/07/17 10:54:36;;;;;;;1.67;1.00;;;24.80;99.90;24.40;101829.00;;;;5049978;28;20686;-63
2023/07/17 10:57:11;;;;;;;0.47;0.47;;;23.70;99.90;24.50;101822.00;;;;5049819;28;20178;-63
2023/07/17 10:59:36;;;;;;;0.50;0.50;;;22.60;99.90;25.90;101821.00;;;;5050010;28;20220;-63
2023/07/17 11:02:03;;;;;;;0.30;0.30;;;23.50;99.90;26.90;101810.00;;;;5049921;28;20182;-63
2023/07/17 11:04:29;;;;;;;0.47;0.47;;;24.20;99.90;27.30;101803.00;;;;5049720;28;20186;-63
2023/07/17 11:07:09;;;;;;;0.32;0.25;;;24.60;99.90;28.30;101786.00;;;;5049625;28;20193;-63
2023/07/17 11:09:35;;;;;;;1.05;0.95;;;25.20;99.90;28.50;101770.00;;;;5049524;28;20185;-63
2023/07/17 11:12:01;;;;;;;1.48;1.13;;;26.20;99.90;27.10;101800.00;;;;5049690;28;20260;-63
2023/07/17 11:14:27;;;;;;;0.70;0.55;;;25.70;99.90;26.70;101813.00;;;;5050421;28;20266;-63
2023/07/17 11:16:53;;;;;;;1.10;1.00;;;25.20;99.90;27.10;101802.00;;;;5049730;28;20185;-63
2023/07/17 11:19:23;;;;;;;0.35;0.35;;;25.40;99.90;28.60;101752.00;;;;5049807;28;20186;-63
2023/07/17 11:21:50;;;;;;;3.22;1.77;;;25.70;99.90;27.40;101797.00;;;;5048299;28;20517;-63
2023/07/17 11:24:16;;;;;;;0.98;0.57;;;26.30;99.90;28.10;101772.00;;;;5049422;28;20225;-66
2023/07/17 11:26:41;;;;;;;5.18;1.67;;;25.70;99.90;26.80;101802.00;;;;5049024;28;20216;-67
2023/07/17 11:29:28;;;;;;;0.65;0.65;;;25.50;99.90;26.20;101810.00;;;;5042908;28;20228;-67
2023/07/17 11:31:59;;;;;;;0.20;0.20;;;24.60;99.90;26.90;101784.00;;;;5047806;28;20566;-66
2023/07/17 11:34:34;;;;;;;0.10;0.10;;;25.20;99.90;30.90;101740.00;;;;5044498;28;20628;-67
2023/07/17 11:37:00;;;;;;;0.43;0.43;;;27.00;99.90;31.00;101751.00;;;;5078665;28;20174;-67
2023/07/17 11:39:38;;;;;;;1.08;0.32;;;28.20;99.90;29.40;101756.00;;;;5081745;28;20521;-67
2023/07/17 11:42:19;;;;;;;5.50;1.95;;;27.60;99.90;27.30;101784.00;;;;5048104;28;20189;-67
2023/07/17 11:45:47;;;;;;;1.02;0.60;;;25.80;99.90;27.70;101793.00;;;;5036165;28;20179;-67
2023/07/17 11:48:24;;;;;;;0.52;0.50;;;26.10;99.90;28.10;101775.00;;;;5055683;28;20167;-67
2023/07/17 11:50:55;;;;;;;0.50;0.50;;;25.40;99.90;26.80;101801.00;;;;5035877;28;20182;-67
2023/07/17 11:53:24;;;;;;;0.10;0.10;;;24.80;99.90;27.50;101802.00;;;;5034613;28;20309;-67
2023/07/17 11:55:59;;;;;;;0.25;0.25;;;24.70;99.90;25.70;101822.00;;;;5032941;28;20204;-67
2023/07/17 11:58:29;;;;;;;0.35;0.35;;;23.80;99.90;26.20;101817.00;;;;5034585;28;20225;-67
2023/07/17 12:00:56;;;;;;;5.97;1.30;;;23.70;99.90;25.80;101827.00;;;;5034500;28;20259;-67
2023/07/17 12:03:23;;;;;;;1.02;0.50;;;23.70;99.90;26.00;101831.00;;;;5018298;28;20237;-67
2023/07/17 12:05:54;;;;;;;1.45;1.02;;;23.30;99.90;25.10;101848.00;;;;5035569;28;20232;-67
2023/07/17 12:08:28;;;;;;;2.35;1.98;;;23.10;99.90;24.90;101860.00;;;;5033751;28;20276;-68
2023/07/17 12:11:01;;;;;;;1.45;1.05;;;22.70;99.90;24.80;101873.00;;;;5034309;28;20198;-67
2023/07/17 12:13:30;;;;;;;1.02;0.55;;;22.50;99.90;23.80;101885.00;;;;5035334;28;20190;-68
2023/07/17 12:15:56;;;;;;;2.05;1.27;;;22.00;99.90;22.60;101900.00;;;;5035398;28;20545;-67
2023/07/17 12:18:22;;;;;;;0.75;0.52;;;21.40;99.90;23.00;101873.00;;;;5033913;28;20190;-63
2023/07/17 12:20:49;;;;;;;0.20;0.20;;;21.20;99.90;23.50;101872.00;;;;5031869;28;20697;-64
2023/07/17 12:23:23;;;;;;;6.05;1.05;;;21.20;99.90;24.50;101848.00;;;;5032481;28;20190;-66
2023/07/17 12:25:49;;;;;;;1.05;0.57;;;21.80;99.90;24.10;101854.00;;;;5035321;28;20193;-66
2023/07/17 12:28:38;;;;;;;0.45;0.45;;;21.90;99.90;24.30;101832.00;;;;5033055;28;20194;-66
2023/07/17 12:31:07;;;;;;;0.20;0.20;;;22.10;99.90;24.80;101841.00;;;;5032837;28;20179;-66
2023/07/17 12:34:16;;;;;;;2.28;2.17;;;22.20;99.90;25.80;101822.00;;;;5033575;28;20179;-66
2023/07/17 12:37:29;;;;;;;0.65;0.65;;;22.70;99.90;24.50;101850.00;;;;5034184;28;20549;-67
2023/07/17 12:39:59;;;;;;;0.45;0.45;;;22.40;99.90;24.50;101845.00;;;;5024111;28;20295;-67
2023/07/17 12:43:17;;;;;;;0.30;0.30;;;22.20;99.90;24.60;101811.00;;;;5013533;28;20207;-64
2023/07/17 12:45:46;;;;;;;1.52;0.50;;;22.30;99.90;24.30;101849.00;;;;5028717;28;20215;-65
2023/07/17 12:48:15;;;;;;;0.10;0.10;;;22.20;99.90;25.20;101835.00;;;;5016320;28;20171;-67
2023/07/17 12:50:43;;;;;;;3.65;1.45;;;22.50;99.90;24.50;101847.00;;;;5033643;28;20305;-67
2023/07/17 12:53:14;;;;;;;0.75;0.70;;;22.70;99.90;24.90;101848.00;;;;5032977;28;20207;-66
2023/07/17 12:55:42;;;;;;;0.28;0.28;;;22.70;99.90;24.70;101842.00;;;;5033978;28;20191;-65
2023/07/17 12:58:32;;;;;;;3.28;1.05;;;22.60;99.90;24.90;101854.00;;;;5033237;28;20269;-65
2023/07/17 13:01:05;;;;;;;0.30;0.30;;;22.40;99.90;25.60;101843.00;;;;5057613;28;20194;-63
2023/07/17 13:03:41;;;;;;;1.27;1.17;;;22.90;99.90;26.30;101860.00;;;;5033405;28;20185;-63
2023/07/17 13:06:14;;;;;;;0.10;0.10;;;23.30;99.90;26.40;101898.00;;;;5033391;28;20230;-63
2023/07/17 13:08:45;;;;;;;0.45;0.45;;;23.40;99.90;26.30;101913.00;;;;5034278;28;20236;-64
2023/07/17 13:11:20;;;;;;;0.32;0.32;;;23.30;99.90;25.90;101922.00;;;;5029910;28;20180;-63
2023/07/17 13:13:52;;;;;;;0.10;0.10;;;23.00;99.90;25.40;101933.00;;;;5032427;28;20190;-67
2023/07/17 13:16:26;;;;;;;0.25;0.25;;;22.70;99.90;25.10;101913.00;;;;5034262;28;20191;-65
2023/07/17 13:18:55;;;;;;;0.10;0.10;;;22.30;99.90;25.30;101902.00;;;;5032292;28;20669;-65
2023/07/17 13:21:28;;;;;;;0.10;0.10;;;22.20;99.90;25.30;101865.00;;;;5031743;28;20193;-64
2023/07/17 13:24:00;;;;;;;0.10;0.10;;;22.20;99.90;25.80;101899.00;;;;5015549;28;20274;-64
2023/07/17 13:26:38;;;;;;;0.10;0.10;;;22.30;99.90;26.00;101883.00;;;;5033017;28;20641;-64
2023/07/17 13:29:39;;;;;;;0.10;0.10;;;22.60;99.90;25.90;101890.00;;;;5029450;28;20175;-64
2023/07/17 13:32:08;;;;;;;0.43;0.43;;;22.80;99.90;26.70;101881.00;;;;5017416;28;20206;-64
2023/07/17 13:34:34;;;;;;;0.10;0.10;;;23.40;99.90;27.20;101837.00;;;;5049327;28;20274;-64
2023/07/17 13:37:03;;;;;;;0.17;0.17;;;23.70;99.90;26.80;101891.00;;;;5032546;28;20183;-64
2023/07/17 13:39:57;;;;;;;2.17;0.95;;;23.80;99.90;26.20;101887.00;;;;5033417;28;20640;-63
2023/07/17 13:42:30;;;;;;;0.10;0.10;;;23.60;99.90;26.60;101886.00;;;;5032826;28;20236;-63
2023/07/17 13:44:59;;;;;;;0.10;0.10;;;23.40;99.90;24.40;101841.00;;;;5033255;28;20183;-64
2023/07/17 13:47:32;;;;;;;1.95;1.40;;;22.50;99.90;26.20;101864.00;;;;5033455;28;20183;-63
2023/07/17 13:50:27;;;;;;;0.57;0.57;;;22.90;99.90;26.60;101871.00;;;;5033251;28;20554;-67
2023/07/17 13:53:00;;;;;;;0.20;0.20;;;23.30;99.90;27.10;101883.00;;;;5015952;28;20280;-66
2023/07/17 13:56:01;;;;;;;0.10;0.10;;;23.70;99.90;27.30;101893.00;;;;5031680;28;20645;-64
2023/07/17 13:59:10;;;;;;;0.10;0.10;;;23.80;99.90;25.70;101906.00;;;;5031987;28;20223;-64
2023/07/17 14:01:47;;;;;;;4.38;0.57;;;23.40;99.90;26.40;101885.00;;;;5031113;28;20185;-66
2023/07/17 14:04:19;;;;;;;13.75;7.13;;;23.10;99.90;26.00;101862.00;;;;5032120;28;20263;-67
2023/07/17 14:06:50;;;;;;;0.10;0.10;;;23.00;99.90;25.40;101842.00;;;;5032065;28;20187;-64
2023/07/17 14:09:56;;;;;;;0.10;0.10;;;22.60;99.90;24.90;101835.00;;;;5033055;28;20186;-64
2023/07/17 14:12:39;;;;;;;0.30;0.30;;;22.20;99.90;23.00;101865.00;;;;5033017;28;20194;-64
2023/07/17 14:15:51;;;;;;;0.50;0.50;;;21.10;99.90;22.10;101841.00;;;;5032775;28;20182;-65
2023/07/17 14:18:39;;;;;;;0.60;0.60;;;20.10;99.90;21.80;101814.00;;;;5032298;28;20628;-65
2023/07/17 14:21:08;;;;;;;1.00;1.00;;;19.40;99.90;21.90;101767.00;;;;5032966;28;20186;-65
2023/07/17 14:23:37;;;;;;;0.70;0.70;;;19.30;99.90;22.20;101772.00;;;;5014629;28;20591;-65
2023/07/17 14:26:11;;;;;;;0.60;0.60;;;19.50;99.90;22.00;101762.00;;;;5032638;28;20193;-64
2023/07/17 14:28:44;;;;;;;0.60;0.60;;;19.50;99.90;22.40;101764.00;;;;5021147;28;20794;-63
2023/07/17 14:31:35;;;;;;;0.50;0.50;;;19.50;99.90;22.40;101788.00;;;;5028031;28;20542;-63
2023/07/17 14:34:14;;;;;;;1.43;1.33;;;19.70;99.90;22.40;101755.00;;;;5031306;28;20721;-63
2023/07/17 14:37:07;;;;;;;0.40;0.40;;;19.80;99.90;21.60;101786.00;;;;5033629;28;20193;-63
2023/07/17 14:40:25;;;;;;;0.30;0.30;;;19.40;99.90;22.80;101789.00;;;;5031575;28;20324;-63
2023/07/17 14:43:14;;;;;;;0.40;0.40;;;19.80;99.90;23.30;101770.00;;;;5063604;28;20182;-62
2023/07/17 14:46:02;;;;;;;0.30;0.30;;;20.20;99.90;23.30;101802.00;;;;5032651;28;20186;-62
2023/07/17 14:48:51;;;;;;;0.30;0.30;;;20.40;99.90;23.70;101780.00;;;;5032955;28;20718;-62
2023/07/17 14:51:30;;;;;;;0.53;0.53;;;20.60;99.90;23.30;101778.00;;;;5025969;28;20228;-62
2023/07/17 14:54:07;;;;;;;0.60;0.40;;;20.80;99.90;23.50;101776.00;;;;5015051;28;20533;-64
2023/07/17 14:56:44;;;;;;;0.40;0.40;;;20.80;99.90;23.70;101769.00;;;;5030998;28;20186;-64
2023/07/17 14:59:27;;;;;;;0.30;0.30;;;20.90;99.90;23.70;101784.00;;;;5031275;28;20206;-61
2023/07/17 15:02:11;;;;;;;0.20;0.20;;;21.00;99.90;24.00;101789.00;;;;5029975;28;20199;-61
2023/07/17 15:04:47;;;;;;;0.75;0.75;;;21.00;99.90;23.80;101775.00;;;;5031925;28;20191;-64
2023/07/17 15:07:15;;;;;;;0.10;0.10;;;21.10;99.90;24.00;101760.00;;;;5031649;28;20286;-65
2023/07/17 15:09:59;;;;;;;2.10;0.40;;;21.20;99.90;24.30;101788.00;;;;5031065;28;20191;-63
2023/07/17 15:12:25;;;;;;;0.10;0.10;;;21.40;99.90;24.40;101786.00;;;;5032106;28;20795;-62
2023/07/17 15:14:57;;;;;;;0.10;0.10;;;21.60;99.90;24.90;101791.00;;;;5031021;28;20178;-64
2023/07/17 15:17:39;;;;;;;0.13;0.13;;;21.80;99.90;24.60;101764.00;;;;5031192;28;20236;-67
2023/07/17 15:20:06;;;;;;;0.20;0.20;;;21.80;99.90;24.70;101784.00;;;;5030669;28;20521;-65
2023/07/17 15:22:39;;;;;;;0.10;0.10;;;22.00;99.90;24.80;101792.00;;;;5035293;28;20186;-65
2023/07/17 15:25:09;;;;;;;0.40;0.40;;;22.00;99.90;25.00;101797.00;;;;5014195;28;20187;-64
2023/07/17 15:27:35;;;;;;;0.20;0.20;;;22.10;99.90;25.20;101814.00;;;;5066220;28;20202;-63
2023/07/17 15:30:03;;;;;;;0.10;0.10;;;22.20;99.90;24.90;101805.00;;;;5036436;28;20185;-64
2023/07/17 15:32:29;;;;;;;0.35;0.35;;;22.10;99.90;24.70;101792.00;;;;5033819;28;20226;-63
2023/07/17 15:34:55;;;;;;;0.28;0.28;;;22.10;99.90;25.20;101811.00;;;;5034580;28;20645;-64
2023/07/17 15:37:28;;;;;;;0.10;0.10;;;22.30;99.90;25.40;101782.00;;;;5014974;28;20188;-63
2023/07/17 15:39:59;;;;;;;0.10;0.10;;;22.40;99.90;25.40;101815.00;;;;5065271;28;20187;-64
2023/07/17 15:42:25;;;;;;;0.10;0.10;;;22.50;99.90;25.80;101827.00;;;;5018200;28;20187;-63
2023/07/17 15:44:51;;;;;;;0.10;0.10;;;22.70;99.90;26.30;101838.00;;;;5017946;28;20179;-64
2023/07/17 15:47:39;;;;;;;0.20;0.20;;;23.00;99.90;25.50;101810.00;;;;5014742;28;20184;-64
2023/07/17 15:50:32;;;;;;;0.10;0.10;;;22.90;99.90;26.10;101848.00;;;;5049023;28;20202;-64
2023/07/17 15:53:18;;;;;;;0.10;0.10;;;23.00;99.90;26.20;101830.00;;;;5017517;28;20197;-64
2023/07/17 15:55:49;;;;;;;0.10;0.10;;;23.00;99.90;25.90;101864.00;;;;5034122;28;20219;-64
2023/07/17 15:58:32;;;;;;;3.83;0.40;;;23.10;99.90;26.00;101859.00;;;;5015110;28;20195;-64
2023/07/17 16:01:04;;;;;;;0.25;0.25;;;23.10;99.90;26.40;101873.00;;;;5022070;28;20171;-64
2023/07/17 16:03:47;;;;;;;0.10;0.10;;;23.30;99.90;26.60;101874.00;;;;5017038;28;20645;-64
2023/07/17 16:06:13;;;;;;;1.88;0.30;;;23.30;99.90;24.90;101882.00;;;;5032924;28;20191;-63
2023/07/17 16:09:04;;;;;;;1.55;0.73;;;22.90;99.90;25.30;101822.00;;;;5034706;28;20588;-64
2023/07/17 16:11:30;;;;;;;0.98;0.73;;;22.70;99.90;25.40;101865.00;;;;5033136;28;20199;-64
2023/07/17 16:14:03;;;;;;;0.75;0.75;;;22.80;99.90;25.60;101874.00;;;;5033946;28;20285;-64
2023/07/17 16:16:51;;;;;;;0.10;0.10;;;22.80;99.90;25.40;101881.00;;;;5017837;28;20212;-63
2023/07/17 16:19:17;;;;;;;0.30;0.30;;;22.70;99.90;25.10;101884.00;;;;5013948;28;20210;-64
2023/07/17 16:21:45;;;;;;;1.05;1.05;;;22.70;99.90;25.20;101852.00;;;;5033746;28;20671;-63
2023/07/17 16:24:14;;;;;;;0.10;0.10;;;22.60;99.90;26.40;101870.00;;;;5034206;28;20186;-64
2023/07/17 16:26:51;;;;;;;0.10;0.10;;;23.10;99.90;26.70;101863.00;;;;5034847;28;20186;-63
2023/07/17 16:29:17;;;;;;;0.20;0.20;;;23.40;99.90;27.20;101863.00;;;;5033452;28;20186;-63
2023/07/17 16:32:19;;;;;;;0.45;0.13;;;23.70;99.90;25.10;101851.00;;;;5013643;28;20222;-63
2023/07/17 16:38:59;;;;;;;0.50;0.50;;;23.10;99.90;24.90;101898.00;;;;5034595;28;20554;-67
2023/07/17 16:41:42;;;;;;;0.10;0.10;;;22.90;99.90;25.40;101893.00;;;;4991508;28;20685;-65
2023/07/17 16:44:47;;;;;;;2.72;0.25;;;22.80;99.90;24.30;101854.00;;;;4993013;28;20705;-65
2023/07/17 16:47:13;;;;;;;0.20;0.20;;;22.50;99.90;26.00;101875.00;;;;4976526;28;20180;-63
2023/07/17 16:49:38;;;;;;;0.10;0.10;;;22.80;99.90;26.20;101870.00;;;;5009394;28;20282;-64
2023/07/17 16:52:05;;;;;;;0.10;0.10;;;23.10;99.90;26.40;101870.00;;;;5033257;28;20248;-67
2023/07/17 16:55:06;;;;;;;0.20;0.20;;;23.30;99.90;26.70;101847.00;;;;5016190;28;20183;-63
2023/07/17 16:58:07;;;;;;;1.98;1.23;;;23.50;99.90;26.10;101875.00;;;;5031922;28;20225;-63
2023/07/17 17:01:00;;;;;;;1.23;0.70;;;23.30;99.90;25.60;101874.00;;;;5032448;28;20182;-62
2023/07/17 17:04:01;;;;;;;0.60;0.60;;;22.90;99.90;24.80;101896.00;;;;5029898;28;20187;-63
2023/07/17 17:06:47;;;;;;;0.22;0.22;;;22.70;99.90;25.30;101890.00;;;;5032710;28;20186;-63
2023/07/17 17:09:39;;;;;;;0.22;0.22;;;22.80;99.90;25.40;101895.00;;;;5031120;28;20268;-63
2023/07/17 17:12:45;;;;;;;3.08;1.10;;;22.60;99.90;25.50;101882.00;;;;5027299;28;20268;-63
2023/07/17 17:16:06;;;;;;;0.10;0.10;;;22.70;99.90;26.00;101863.00;;;;5026689;28;20214;-63
2023/07/17 17:19:21;;;;;;;6.32;0.60;;;23.00;99.90;25.00;101892.00;;;;5030338;28;20191;-62
2023/07/17 17:22:10;;;;;;;0.10;0.10;;;22.80;99.90;25.50;101876.00;;;;5031413;28;20183;-62
2023/07/17 17:24:58;;;;;;;0.10;0.10;;;22.60;99.90;24.50;101912.00;;;;5032493;28;20183;-62
2023/07/17 17:28:08;;;;;;;0.17;0.17;;;22.30;99.90;25.50;101897.00;;;;5033778;28;20697;-62
2023/07/17 17:31:01;;;;;;;0.20;0.20;;;22.40;99.90;24.80;101910.00;;;;5028012;28;20189;-62
2023/07/17 17:34:19;;;;;;;0.10;0.10;;;22.60;99.90;25.70;101891.00;;;;5031354;28;20229;-62
2023/07/17 17:37:26;;;;;;;0.10;0.10;;;22.60;99.90;25.40;101900.00;;;;5033365;28;20646;-63
2023/07/17 17:39:54;;;;;;;0.20;0.20;;;22.70;99.90;24.80;101922.00;;;;5025360;28;20193;-63
2023/07/17 17:42:58;;;;;;;0.45;0.25;;;22.30;99.90;24.60;101933.00;;;;5027352;28;20190;-63
2023/07/17 17:46:04;;;;;;;0.30;0.30;;;22.20;99.90;24.80;101921.00;;;;5012639;28;20210;-62
2023/07/17 17:49:15;;;;;;;0.10;0.10;;;22.20;99.90;23.80;101940.00;;;;5031815;28;20213;-62
2023/07/17 17:52:34;;;;;;;0.20;0.20;;;22.00;99.90;24.60;101930.00;;;;5020319;28;20556;-62
2023/07/17 17:55:05;;;;;;;0.10;0.10;;;21.90;99.90;24.30;101941.00;;;;5033065;28;20547;-63
2023/07/17 17:57:33;;;;;;;0.52;0.52;;;21.90;99.90;24.40;101939.00;;;;5033282;28;20214;-62
2023/07/17 18:00:24;;;;;;;1.00;0.98;;;22.00;99.90;24.30;101934.00;;;;5032073;28;20190;-62
2023/07/17 18:03:31;;;;;;;0.90;0.47;;;21.90;99.90;23.60;101960.00;;;;5033367;28;20194;-62
2023/07/17 18:06:52;;;;;;;0.30;0.30;;;21.70;99.90;24.00;101953.00;;;;5031922;28;20295;-62
2023/07/17 18:09:43;;;;;;;0.32;0.32;;;21.70;99.90;24.30;101936.00;;;;5011264;28;20298;-62
2023/07/17 18:12:23;;;;;;;0.10;0.10;;;21.80;99.90;23.90;101951.00;;;;4974568;28;20719;-63
2023/07/17 18:15:44;;;;;;;0.22;0.22;;;21.70;99.90;23.80;101954.00;;;;5027418;28;20557;-63
2023/07/17 18:18:33;;;;;;;0.90;0.60;;;21.50;99.90;23.80;101952.00;;;;5030866;28;20209;-63
2023/07/17 18:21:16;;;;;;;0.20;0.20;;;21.50;99.90;23.90;101923.00;;;;5031185;28;20589;-63
2023/07/17 18:24:23;;;;;;;0.20;0.20;;;21.60;99.90;24.20;101923.00;;;;5032573;28;20199;-63
2023/07/17 18:27:32;;;;;;;0.90;0.88;;;21.60;99.90;24.00;101948.00;;;;5029635;28;20252;-63
2023/07/17 18:30:32;;;;;;;1.27;0.28;;;21.60;99.90;24.40;101964.00;;;;5029077;28;20210;-63
2023/07/17 18:33:38;;;;;;;0.43;0.43;;;21.70;99.90;24.70;101969.00;;;;5028254;28;20242;-68
2023/07/17 18:36:39;;;;;;;0.50;0.30;;;21.70;99.90;24.20;101972.00;;;;5013956;28;20280;-66
2023/07/17 18:39:58;;;;;;;0.32;0.32;;;21.80;99.90;24.00;101991.00;;;;5032164;28;20194;-67
2023/07/17 18:42:57;;;;;;;0.10;0.10;;;21.60;99.90;23.80;101997.00;;;;5028843;28;20190;-64
2023/07/17 18:46:05;;;;;;;0.10;0.10;;;21.50;99.90;23.20;102022.00;;;;5032301;28;20638;-65
2023/07/17 18:48:58;;;;;;;0.40;0.40;;;21.30;99.90;23.40;102011.00;;;;5032786;28;20201;-65
2023/07/17 18:52:14;;;;;;;0.38;0.38;;;21.10;99.90;24.00;101976.00;;;;5021104;28;20649;-63
2023/07/17 18:55:22;;;;;;;3.58;0.75;;;21.30;99.90;23.20;102027.00;;;;5035545;28;20269;-66
2023/07/17 18:58:28;;;;;;;0.40;0.40;;;21.00;99.90;23.20;102024.00;;;;5025591;28;20174;-64
2023/07/17 19:00:58;;;;;;;2.28;0.65;;;20.90;99.90;24.00;102001.00;;;;5031572;28;20552;-64